sensor_id;sensor_type;location;lat;lon;timestamp;P1;durP1;ratioP1;P2;durP2;ratioP2
15616;SDS011;7908;51.688;7.130;2022-09-20T00:01:40;14.47;;;6.37;;
15616;SDS011;7908;51.688;7.130;2022-09-20T00:04:09;18.13;;;7.03;;
15616;SDS011;7908;51.688;7.130;2022-09-20T00:06:39;14.53;;;6.90;;
15616;SDS011;7908;51.688;7.130;2022-09-20T00:09:10;18.97;;;9.53;;
15616;SDS011;7908;51.688;7.130;2022-09-20T00:11:39;15.47;;;6.33;;
15616;SDS011;7908;51.688;7.130;2022-09-20T00:14:13;21.53;;;7.83;;
15616;SDS011;7908;51.688;7.130;2022-09-20T00:16:41;13.50;;;6.50;;
15616;SDS011;7908;51.688;7.130;2022-09-20T00:19:13;19.40;;;7.40;;
15616;SDS011;7908;51.688;7.130;2022-09-20T00:21:47;19.60;;;6.87;;
15616;SDS011;7908;51.688;7.130;2022-09-20T00:24:16;13.93;;;6.90;;
15616;SDS011;7908;51.688;7.130;2022-09-20T00:26:45;14.77;;;6.80;;
15616;SDS011;7908;51.688;7.130;2022-09-20T00:29:16;20.30;;;7.30;;
15616;SDS011;7908;51.688;7.130;2022-09-20T00:31:46;20.27;;;6.90;;
15616;SDS011;7908;51.688;7.130;2022-09-20T00:34:18;17.53;;;6.90;;
15616;SDS011;7908;51.688;7.130;2022-09-20T00:37:04;19.23;;;7.33;;
15616;SDS011;7908;51.688;7.130;2022-09-20T00:39:33;15.43;;;7.10;;
15616;SDS011;7908;51.688;7.130;2022-09-20T00:42:03;20.43;;;7.63;;
15616;SDS011;7908;51.688;7.130;2022-09-20T00:44:41;15.47;;;7.17;;
15616;SDS011;7908;51.688;7.130;2022-09-20T00:47:26;13.83;;;6.57;;
15616;SDS011;7908;51.688;7.130;2022-09-20T00:50:05;15.97;;;6.97;;
15616;SDS011;7908;51.688;7.130;2022-09-20T00:52:41;15.93;;;6.50;;
15616;SDS011;7908;51.688;7.130;2022-09-20T00:55:13;24.80;;;8.30;;
15616;SDS011;7908;51.688;7.130;2022-09-20T00:57:44;18.27;;;7.63;;
15616;SDS011;7908;51.688;7.130;2022-09-20T01:00:16;14.77;;;7.57;;
15616;SDS011;7908;51.688;7.130;2022-09-20T01:02:45;17.47;;;7.37;;
15616;SDS011;7908;51.688;7.130;2022-09-20T01:05:17;16.83;;;7.97;;
15616;SDS011;7908;51.688;7.130;2022-09-20T01:07:47;14.57;;;7.23;;
15616;SDS011;7908;51.688;7.130;2022-09-20T01:10:18;25.10;;;9.40;;
15616;SDS011;7908;51.688;7.130;2022-09-20T01:12:47;19.67;;;9.57;;
15616;SDS011;7908;51.688;7.130;2022-09-20T01:15:20;17.70;;;9.87;;
15616;SDS011;7908;51.688;7.130;2022-09-20T01:17:51;19.53;;;9.27;;
15616;SDS011;7908;51.688;7.130;2022-09-20T01:20:22;21.30;;;10.27;;
15616;SDS011;7908;51.688;7.130;2022-09-20T01:26:06;20.70;;;9.80;;
15616;SDS011;7908;51.688;7.130;2022-09-20T01:29:06;21.80;;;9.43;;
15616;SDS011;7908;51.688;7.130;2022-09-20T01:31:43;21.33;;;9.13;;
15616;SDS011;7908;51.688;7.130;2022-09-20T01:34:17;24.03;;;9.80;;
15616;SDS011;7908;51.688;7.130;2022-09-20T01:36:52;24.80;;;10.13;;
15616;SDS011;7908;51.688;7.130;2022-09-20T01:39:27;21.07;;;9.10;;
15616;SDS011;7908;51.688;7.130;2022-09-20T01:42:04;16.93;;;9.50;;
15616;SDS011;7908;51.688;7.130;2022-09-20T01:44:36;21.57;;;10.53;;
15616;SDS011;7908;51.688;7.130;2022-09-20T01:47:12;19.53;;;9.57;;
15616;SDS011;7908;51.688;7.130;2022-09-20T01:49:50;19.43;;;8.77;;
15616;SDS011;7908;51.688;7.130;2022-09-20T01:52:39;21.07;;;9.53;;
15616;SDS011;7908;51.688;7.130;2022-09-20T01:55:45;16.17;;;8.77;;
15616;SDS011;7908;51.688;7.130;2022-09-20T01:58:51;16.87;;;8.30;;
15616;SDS011;7908;51.688;7.130;2022-09-20T02:01:59;16.60;;;8.30;;
15616;SDS011;7908;51.688;7.130;2022-09-20T02:04:57;15.77;;;8.70;;
15616;SDS011;7908;51.688;7.130;2022-09-20T02:07:54;16.13;;;7.43;;
15616;SDS011;7908;51.688;7.130;2022-09-20T02:16:37;16.63;;;7.77;;
15616;SDS011;7908;51.688;7.130;2022-09-20T02:19:34;16.90;;;8.57;;
15616;SDS011;7908;51.688;7.130;2022-09-20T02:22:19;20.10;;;9.60;;
15616;SDS011;7908;51.688;7.130;2022-09-20T02:25:00;19.00;;;9.17;;
15616;SDS011;7908;51.688;7.130;2022-09-20T02:27:40;20.67;;;9.33;;
15616;SDS011;7908;51.688;7.130;2022-09-20T02:30:22;20.80;;;9.57;;
15616;SDS011;7908;51.688;7.130;2022-09-20T02:33:11;20.57;;;9.50;;
15616;SDS011;7908;51.688;7.130;2022-09-20T02:35:59;21.90;;;9.83;;
15616;SDS011;7908;51.688;7.130;2022-09-20T02:38:48;20.40;;;8.33;;
15616;SDS011;7908;51.688;7.130;2022-09-20T02:41:35;16.97;;;8.37;;
15616;SDS011;7908;51.688;7.130;2022-09-20T02:44:25;15.60;;;7.90;;
15616;SDS011;7908;51.688;7.130;2022-09-20T02:47:05;15.30;;;8.23;;
15616;SDS011;7908;51.688;7.130;2022-09-20T02:49:51;16.90;;;8.80;;
15616;SDS011;7908;51.688;7.130;2022-09-20T02:52:34;17.40;;;9.27;;
15616;SDS011;7908;51.688;7.130;2022-09-20T02:55:14;18.30;;;9.23;;
15616;SDS011;7908;51.688;7.130;2022-09-20T02:57:49;20.20;;;10.93;;
15616;SDS011;7908;51.688;7.130;2022-09-20T03:00:26;23.53;;;11.27;;
15616;SDS011;7908;51.688;7.130;2022-09-20T03:03:00;18.27;;;11.00;;
15616;SDS011;7908;51.688;7.130;2022-09-20T03:05:40;23.30;;;11.57;;
15616;SDS011;7908;51.688;7.130;2022-09-20T03:08:19;20.77;;;11.23;;
15616;SDS011;7908;51.688;7.130;2022-09-20T03:11:01;21.47;;;10.97;;
15616;SDS011;7908;51.688;7.130;2022-09-20T03:13:42;15.63;;;10.50;;
15616;SDS011;7908;51.688;7.130;2022-09-20T03:16:24;23.53;;;11.53;;
15616;SDS011;7908;51.688;7.130;2022-09-20T03:19:07;21.17;;;11.30;;
15616;SDS011;7908;51.688;7.130;2022-09-20T03:21:49;20.60;;;11.87;;
15616;SDS011;7908;51.688;7.130;2022-09-20T03:24:32;17.57;;;10.83;;
15616;SDS011;7908;51.688;7.130;2022-09-20T03:27:15;19.60;;;10.40;;
15616;SDS011;7908;51.688;7.130;2022-09-20T03:29:57;17.23;;;10.10;;
15616;SDS011;7908;51.688;7.130;2022-09-20T03:32:45;18.37;;;10.20;;
15616;SDS011;7908;51.688;7.130;2022-09-20T03:35:24;17.93;;;9.87;;
15616;SDS011;7908;51.688;7.130;2022-09-20T03:38:24;20.27;;;11.03;;
15616;SDS011;7908;51.688;7.130;2022-09-20T03:41:40;21.47;;;10.57;;
15616;SDS011;7908;51.688;7.130;2022-09-20T03:44:26;20.77;;;10.53;;
15616;SDS011;7908;51.688;7.130;2022-09-20T03:47:18;14.97;;;9.57;;
15616;SDS011;7908;51.688;7.130;2022-09-20T03:50:03;20.00;;;10.37;;
15616;SDS011;7908;51.688;7.130;2022-09-20T03:52:56;19.97;;;10.90;;
15616;SDS011;7908;51.688;7.130;2022-09-20T03:58:50;18.77;;;9.90;;
15616;SDS011;7908;51.688;7.130;2022-09-20T04:01:38;21.10;;;10.83;;
15616;SDS011;7908;51.688;7.130;2022-09-20T04:04:23;18.93;;;10.80;;
15616;SDS011;7908;51.688;7.130;2022-09-20T04:07:08;25.50;;;10.87;;
15616;SDS011;7908;51.688;7.130;2022-09-20T04:09:46;19.73;;;11.30;;
15616;SDS011;7908;51.688;7.130;2022-09-20T04:12:28;22.97;;;11.10;;
15616;SDS011;7908;51.688;7.130;2022-09-20T04:15:18;18.30;;;10.37;;
15616;SDS011;7908;51.688;7.130;2022-09-20T04:17:56;20.67;;;11.00;;
15616;SDS011;7908;51.688;7.130;2022-09-20T04:20:33;20.00;;;10.83;;
15616;SDS011;7908;51.688;7.130;2022-09-20T04:23:13;21.13;;;10.30;;
15616;SDS011;7908;51.688;7.130;2022-09-20T04:25:51;19.33;;;9.57;;
15616;SDS011;7908;51.688;7.130;2022-09-20T04:28:21;24.87;;;11.43;;
15616;SDS011;7908;51.688;7.130;2022-09-20T04:30:55;22.17;;;10.80;;
15616;SDS011;7908;51.688;7.130;2022-09-20T04:33:32;18.93;;;10.00;;
15616;SDS011;7908;51.688;7.130;2022-09-20T04:36:10;21.30;;;11.00;;
15616;SDS011;7908;51.688;7.130;2022-09-20T04:39:02;21.60;;;11.03;;
15616;SDS011;7908;51.688;7.130;2022-09-20T04:41:58;24.23;;;10.90;;
15616;SDS011;7908;51.688;7.130;2022-09-20T04:48:07;24.97;;;11.30;;
15616;SDS011;7908;51.688;7.130;2022-09-20T04:51:04;18.43;;;10.83;;
15616;SDS011;7908;51.688;7.130;2022-09-20T04:54:02;23.27;;;11.33;;
15616;SDS011;7908;51.688;7.130;2022-09-20T04:56:55;19.93;;;10.17;;
15616;SDS011;7908;51.688;7.130;2022-09-20T04:59:43;26.73;;;12.10;;
15616;SDS011;7908;51.688;7.130;2022-09-20T05:02:38;20.10;;;11.17;;
15616;SDS011;7908;51.688;7.130;2022-09-20T05:08:49;22.37;;;11.10;;
15616;SDS011;7908;51.688;7.130;2022-09-20T05:15:05;25.10;;;13.13;;
15616;SDS011;7908;51.688;7.130;2022-09-20T05:17:43;23.73;;;13.33;;
15616;SDS011;7908;51.688;7.130;2022-09-20T05:20:36;27.07;;;13.73;;
15616;SDS011;7908;51.688;7.130;2022-09-20T05:26:09;25.90;;;13.33;;
15616;SDS011;7908;51.688;7.130;2022-09-20T05:28:49;26.23;;;15.00;;
15616;SDS011;7908;51.688;7.130;2022-09-20T05:31:25;23.97;;;13.73;;
15616;SDS011;7908;51.688;7.130;2022-09-20T05:34:06;25.67;;;15.13;;
15616;SDS011;7908;51.688;7.130;2022-09-20T05:36:47;26.90;;;16.13;;
15616;SDS011;7908;51.688;7.130;2022-09-20T05:39:32;24.70;;;15.57;;
15616;SDS011;7908;51.688;7.130;2022-09-20T05:42:10;27.27;;;16.03;;
15616;SDS011;7908;51.688;7.130;2022-09-20T05:44:55;22.83;;;14.97;;
15616;SDS011;7908;51.688;7.130;2022-09-20T05:47:36;30.50;;;16.07;;
15616;SDS011;7908;51.688;7.130;2022-09-20T05:50:15;25.13;;;14.57;;
15616;SDS011;7908;51.688;7.130;2022-09-20T05:52:54;28.70;;;15.40;;
15616;SDS011;7908;51.688;7.130;2022-09-20T05:58:36;22.70;;;14.13;;
15616;SDS011;7908;51.688;7.130;2022-09-20T06:01:18;27.97;;;14.73;;
15616;SDS011;7908;51.688;7.130;2022-09-20T06:03:53;24.80;;;13.73;;
15616;SDS011;7908;51.688;7.130;2022-09-20T06:06:37;27.90;;;14.47;;
15616;SDS011;7908;51.688;7.130;2022-09-20T06:09:21;24.90;;;13.70;;
15616;SDS011;7908;51.688;7.130;2022-09-20T06:12:07;25.77;;;13.30;;
15616;SDS011;7908;51.688;7.130;2022-09-20T06:14:59;19.80;;;12.33;;
15616;SDS011;7908;51.688;7.130;2022-09-20T06:17:39;24.03;;;14.07;;
15616;SDS011;7908;51.688;7.130;2022-09-20T06:20:18;28.70;;;14.87;;
15616;SDS011;7908;51.688;7.130;2022-09-20T06:22:54;23.93;;;13.60;;
15616;SDS011;7908;51.688;7.130;2022-09-20T06:25:26;33.77;;;17.37;;
15616;SDS011;7908;51.688;7.130;2022-09-20T06:27:59;43.43;;;31.50;;
15616;SDS011;7908;51.688;7.130;2022-09-20T06:30:35;35.53;;;27.43;;
15616;SDS011;7908;51.688;7.130;2022-09-20T06:33:12;30.63;;;22.17;;
15616;SDS011;7908;51.688;7.130;2022-09-20T06:35:44;38.57;;;20.00;;
15616;SDS011;7908;51.688;7.130;2022-09-20T06:41:28;33.87;;;18.13;;
15616;SDS011;7908;51.688;7.130;2022-09-20T06:44:00;33.90;;;17.83;;
15616;SDS011;7908;51.688;7.130;2022-09-20T06:46:36;33.43;;;16.53;;
15616;SDS011;7908;51.688;7.130;2022-09-20T06:49:10;40.83;;;19.57;;
15616;SDS011;7908;51.688;7.130;2022-09-20T06:51:39;35.47;;;18.93;;
15616;SDS011;7908;51.688;7.130;2022-09-20T06:54:14;36.53;;;19.93;;
15616;SDS011;7908;51.688;7.130;2022-09-20T06:56:45;33.47;;;19.10;;
15616;SDS011;7908;51.688;7.130;2022-09-20T06:59:17;38.73;;;22.30;;
15616;SDS011;7908;51.688;7.130;2022-09-20T07:01:50;43.77;;;29.60;;
15616;SDS011;7908;51.688;7.130;2022-09-20T07:04:27;48.10;;;32.13;;
15616;SDS011;7908;51.688;7.130;2022-09-20T07:06:58;54.03;;;33.17;;
15616;SDS011;7908;51.688;7.130;2022-09-20T07:09:32;41.40;;;27.50;;
15616;SDS011;7908;51.688;7.130;2022-09-20T07:12:02;43.80;;;26.30;;
15616;SDS011;7908;51.688;7.130;2022-09-20T07:14:33;41.40;;;27.73;;
15616;SDS011;7908;51.688;7.130;2022-09-20T07:17:08;37.47;;;20.97;;
15616;SDS011;7908;51.688;7.130;2022-09-20T07:19:40;28.60;;;17.73;;
15616;SDS011;7908;51.688;7.130;2022-09-20T07:22:11;28.93;;;15.73;;
15616;SDS011;7908;51.688;7.130;2022-09-20T07:24:40;30.20;;;14.00;;
15616;SDS011;7908;51.688;7.130;2022-09-20T07:27:12;26.27;;;13.43;;
15616;SDS011;7908;51.688;7.130;2022-09-20T07:29:44;24.40;;;12.60;;
15616;SDS011;7908;51.688;7.130;2022-09-20T07:32:15;21.57;;;11.67;;
15616;SDS011;7908;51.688;7.130;2022-09-20T07:34:44;19.67;;;11.27;;
15616;SDS011;7908;51.688;7.130;2022-09-20T07:37:15;25.47;;;12.47;;
15616;SDS011;7908;51.688;7.130;2022-09-20T07:39:47;25.20;;;11.40;;
15616;SDS011;7908;51.688;7.130;2022-09-20T07:42:21;21.93;;;10.73;;
15616;SDS011;7908;51.688;7.130;2022-09-20T07:44:57;29.30;;;11.87;;
15616;SDS011;7908;51.688;7.130;2022-09-20T07:47:31;21.73;;;10.90;;
15616;SDS011;7908;51.688;7.130;2022-09-20T07:50:08;25.90;;;12.13;;
15616;SDS011;7908;51.688;7.130;2022-09-20T07:52:39;29.30;;;10.97;;
15616;SDS011;7908;51.688;7.130;2022-09-20T07:55:10;16.80;;;9.87;;
15616;SDS011;7908;51.688;7.130;2022-09-20T07:57:41;22.27;;;11.67;;
15616;SDS011;7908;51.688;7.130;2022-09-20T08:00:11;29.57;;;12.97;;
15616;SDS011;7908;51.688;7.130;2022-09-20T08:02:42;22.33;;;11.13;;
15616;SDS011;7908;51.688;7.130;2022-09-20T08:05:11;18.30;;;10.73;;
15616;SDS011;7908;51.688;7.130;2022-09-20T08:07:46;17.13;;;10.63;;
15616;SDS011;7908;51.688;7.130;2022-09-20T08:10:15;19.07;;;10.57;;
15616;SDS011;7908;51.688;7.130;2022-09-20T08:12:45;19.33;;;10.57;;
15616;SDS011;7908;51.688;7.130;2022-09-20T08:15:35;24.33;;;10.27;;
15616;SDS011;7908;51.688;7.130;2022-09-20T08:18:06;20.07;;;10.57;;
15616;SDS011;7908;51.688;7.130;2022-09-20T08:20:37;20.90;;;10.10;;
15616;SDS011;7908;51.688;7.130;2022-09-20T08:23:07;15.53;;;9.73;;
15616;SDS011;7908;51.688;7.130;2022-09-20T08:25:49;22.40;;;10.57;;
15616;SDS011;7908;51.688;7.130;2022-09-20T08:28:18;19.03;;;9.77;;
15616;SDS011;7908;51.688;7.130;2022-09-20T08:30:47;21.90;;;8.93;;
15616;SDS011;7908;51.688;7.130;2022-09-20T08:33:18;18.37;;;9.23;;
15616;SDS011;7908;51.688;7.130;2022-09-20T08:35:47;16.20;;;7.87;;
15616;SDS011;7908;51.688;7.130;2022-09-20T08:38:16;14.83;;;6.70;;
15616;SDS011;7908;51.688;7.130;2022-09-20T08:41:09;11.17;;;6.90;;
15616;SDS011;7908;51.688;7.130;2022-09-20T08:43:41;13.90;;;6.40;;
15616;SDS011;7908;51.688;7.130;2022-09-20T08:46:12;12.77;;;6.17;;
15616;SDS011;7908;51.688;7.130;2022-09-20T08:48:51;9.17;;;5.60;;
15616;SDS011;7908;51.688;7.130;2022-09-20T08:51:24;9.47;;;5.40;;
15616;SDS011;7908;51.688;7.130;2022-09-20T08:53:58;12.17;;;5.43;;
15616;SDS011;7908;51.688;7.130;2022-09-20T08:56:33;15.30;;;6.03;;
15616;SDS011;7908;51.688;7.130;2022-09-20T08:59:07;12.60;;;5.47;;
15616;SDS011;7908;51.688;7.130;2022-09-20T09:01:48;16.93;;;5.60;;
15616;SDS011;7908;51.688;7.130;2022-09-20T09:04:20;13.43;;;5.60;;
15616;SDS011;7908;51.688;7.130;2022-09-20T09:06:52;12.77;;;4.80;;
15616;SDS011;7908;51.688;7.130;2022-09-20T09:09:22;7.80;;;4.37;;
15616;SDS011;7908;51.688;7.130;2022-09-20T09:11:54;15.50;;;4.87;;
15616;SDS011;7908;51.688;7.130;2022-09-20T09:14:24;15.33;;;3.70;;
15616;SDS011;7908;51.688;7.130;2022-09-20T09:17:14;12.93;;;3.33;;
15616;SDS011;7908;51.688;7.130;2022-09-20T09:19:47;7.90;;;3.23;;
15616;SDS011;7908;51.688;7.130;2022-09-20T09:22:18;8.97;;;3.37;;
15616;SDS011;7908;51.688;7.130;2022-09-20T09:25:18;6.83;;;2.70;;
15616;SDS011;7908;51.688;7.130;2022-09-20T09:27:52;10.10;;;2.80;;
15616;SDS011;7908;51.688;7.130;2022-09-20T09:30:26;12.47;;;3.10;;
15616;SDS011;7908;51.688;7.130;2022-09-20T09:33:17;8.33;;;2.90;;
15616;SDS011;7908;51.688;7.130;2022-09-20T09:35:54;7.10;;;1.80;;
15616;SDS011;7908;51.688;7.130;2022-09-20T09:38:28;7.40;;;1.90;;
15616;SDS011;7908;51.688;7.130;2022-09-20T09:40:59;7.20;;;1.60;;
15616;SDS011;7908;51.688;7.130;2022-09-20T09:43:29;7.47;;;1.40;;
15616;SDS011;7908;51.688;7.130;2022-09-20T09:49:02;8.00;;;1.90;;
15616;SDS011;7908;51.688;7.130;2022-09-20T09:51:39;5.83;;;1.60;;
15616;SDS011;7908;51.688;7.130;2022-09-20T09:54:12;12.30;;;1.60;;
15616;SDS011;7908;51.688;7.130;2022-09-20T09:56:51;9.97;;;1.87;;
15616;SDS011;7908;51.688;7.130;2022-09-20T09:59:40;6.53;;;1.60;;
15616;SDS011;7908;51.688;7.130;2022-09-20T10:02:41;4.60;;;1.53;;
15616;SDS011;7908;51.688;7.130;2022-09-20T10:05:34;6.40;;;1.90;;
15616;SDS011;7908;51.688;7.130;2022-09-20T10:08:15;7.03;;;2.03;;
15616;SDS011;7908;51.688;7.130;2022-09-20T10:11:03;5.43;;;1.63;;
15616;SDS011;7908;51.688;7.130;2022-09-20T10:13:46;4.33;;;1.60;;
15616;SDS011;7908;51.688;7.130;2022-09-20T10:16:31;5.93;;;1.83;;
15616;SDS011;7908;51.688;7.130;2022-09-20T10:19:17;4.00;;;1.50;;
15616;SDS011;7908;51.688;7.130;2022-09-20T10:22:02;7.20;;;1.50;;
15616;SDS011;7908;51.688;7.130;2022-09-20T10:24:44;3.63;;;1.20;;
15616;SDS011;7908;51.688;7.130;2022-09-20T10:27:24;6.30;;;1.20;;
15616;SDS011;7908;51.688;7.130;2022-09-20T10:30:09;6.93;;;1.40;;
15616;SDS011;7908;51.688;7.130;2022-09-20T10:32:47;5.87;;;1.13;;
15616;SDS011;7908;51.688;7.130;2022-09-20T10:35:42;4.93;;;1.30;;
15616;SDS011;7908;51.688;7.130;2022-09-20T10:38:40;8.23;;;1.40;;
15616;SDS011;7908;51.688;7.130;2022-09-20T10:44:38;13.07;;;1.57;;
15616;SDS011;7908;51.688;7.130;2022-09-20T10:47:25;6.87;;;1.37;;
15616;SDS011;7908;51.688;7.130;2022-09-20T10:50:02;9.93;;;1.63;;
15616;SDS011;7908;51.688;7.130;2022-09-20T10:55:40;8.57;;;1.83;;
15616;SDS011;7908;51.688;7.130;2022-09-20T10:58:29;7.90;;;1.43;;
15616;SDS011;7908;51.688;7.130;2022-09-20T11:01:19;2.93;;;0.80;;
15616;SDS011;7908;51.688;7.130;2022-09-20T11:07:08;3.23;;;0.83;;
15616;SDS011;7908;51.688;7.130;2022-09-20T11:09:41;5.13;;;1.13;;
15616;SDS011;7908;51.688;7.130;2022-09-20T11:12:19;3.90;;;0.80;;
15616;SDS011;7908;51.688;7.130;2022-09-20T11:14:54;2.90;;;0.90;;
15616;SDS011;7908;51.688;7.130;2022-09-20T11:17:34;3.07;;;0.60;;
15616;SDS011;7908;51.688;7.130;2022-09-20T11:20:06;3.00;;;0.90;;
15616;SDS011;7908;51.688;7.130;2022-09-20T11:22:50;2.33;;;0.87;;
15616;SDS011;7908;51.688;7.130;2022-09-20T11:25:29;2.80;;;0.80;;
15616;SDS011;7908;51.688;7.130;2022-09-20T11:31:01;3.63;;;0.83;;
15616;SDS011;7908;51.688;7.130;2022-09-20T11:33:41;3.03;;;0.70;;
15616;SDS011;7908;51.688;7.130;2022-09-20T11:36:18;2.57;;;0.77;;
15616;SDS011;7908;51.688;7.130;2022-09-20T11:38:54;2.63;;;0.90;;
15616;SDS011;7908;51.688;7.130;2022-09-20T11:41:30;1.80;;;0.70;;
15616;SDS011;7908;51.688;7.130;2022-09-20T11:44:03;3.70;;;1.00;;
15616;SDS011;7908;51.688;7.130;2022-09-20T11:46:37;6.50;;;0.93;;
15616;SDS011;7908;51.688;7.130;2022-09-20T11:49:15;2.93;;;0.70;;
15616;SDS011;7908;51.688;7.130;2022-09-20T11:57:59;4.57;;;1.20;;
15616;SDS011;7908;51.688;7.130;2022-09-20T12:00:36;2.90;;;0.93;;
15616;SDS011;7908;51.688;7.130;2022-09-20T12:03:31;3.23;;;0.73;;
15616;SDS011;7908;51.688;7.130;2022-09-20T12:06:04;5.63;;;0.80;;
15616;SDS011;7908;51.688;7.130;2022-09-20T12:08:49;2.87;;;0.80;;
15616;SDS011;7908;51.688;7.130;2022-09-20T12:11:27;3.70;;;0.80;;
15616;SDS011;7908;51.688;7.130;2022-09-20T12:14:00;4.93;;;0.87;;
15616;SDS011;7908;51.688;7.130;2022-09-20T12:16:35;4.17;;;0.83;;
15616;SDS011;7908;51.688;7.130;2022-09-20T12:19:11;4.23;;;0.90;;
15616;SDS011;7908;51.688;7.130;2022-09-20T12:22:15;2.77;;;0.93;;
15616;SDS011;7908;51.688;7.130;2022-09-20T12:28:10;4.93;;;0.70;;
15616;SDS011;7908;51.688;7.130;2022-09-20T12:30:52;2.20;;;0.70;;
15616;SDS011;7908;51.688;7.130;2022-09-20T12:34:27;3.67;;;0.97;;
15616;SDS011;7908;51.688;7.130;2022-09-20T12:37:15;3.77;;;1.30;;
15616;SDS011;7908;51.688;7.130;2022-09-20T12:39:54;4.77;;;1.30;;
15616;SDS011;7908;51.688;7.130;2022-09-20T12:42:26;4.93;;;1.00;;
15616;SDS011;7908;51.688;7.130;2022-09-20T12:44:58;5.30;;;1.30;;
15616;SDS011;7908;51.688;7.130;2022-09-20T12:47:33;3.30;;;0.87;;
15616;SDS011;7908;51.688;7.130;2022-09-20T12:50:17;4.60;;;0.90;;
15616;SDS011;7908;51.688;7.130;2022-09-20T12:53:13;2.43;;;0.83;;
15616;SDS011;7908;51.688;7.130;2022-09-20T12:55:48;4.67;;;1.03;;
15616;SDS011;7908;51.688;7.130;2022-09-20T13:01:29;2.47;;;0.73;;
15616;SDS011;7908;51.688;7.130;2022-09-20T13:07:45;3.53;;;1.00;;
15616;SDS011;7908;51.688;7.130;2022-09-20T13:10:36;3.10;;;0.80;;
15616;SDS011;7908;51.688;7.130;2022-09-20T13:13:30;2.60;;;0.70;;
15616;SDS011;7908;51.688;7.130;2022-09-20T13:16:06;2.73;;;0.70;;
15616;SDS011;7908;51.688;7.130;2022-09-20T13:18:49;2.70;;;0.80;;
15616;SDS011;7908;51.688;7.130;2022-09-20T13:21:27;4.57;;;0.90;;
15616;SDS011;7908;51.688;7.130;2022-09-20T13:23:57;3.20;;;0.90;;
15616;SDS011;7908;51.688;7.130;2022-09-20T13:26:32;5.13;;;1.40;;
15616;SDS011;7908;51.688;7.130;2022-09-20T13:29:08;4.17;;;1.00;;
15616;SDS011;7908;51.688;7.130;2022-09-20T13:31:49;5.87;;;0.80;;
15616;SDS011;7908;51.688;7.130;2022-09-20T13:34:20;3.13;;;1.10;;
15616;SDS011;7908;51.688;7.130;2022-09-20T13:36:55;4.30;;;1.30;;
15616;SDS011;7908;51.688;7.130;2022-09-20T13:39:37;4.33;;;1.30;;
15616;SDS011;7908;51.688;7.130;2022-09-20T13:42:10;3.97;;;1.00;;
15616;SDS011;7908;51.688;7.130;2022-09-20T13:44:50;3.13;;;0.80;;
15616;SDS011;7908;51.688;7.130;2022-09-20T13:47:25;5.03;;;1.07;;
15616;SDS011;7908;51.688;7.130;2022-09-20T13:49:59;4.50;;;1.27;;
15616;SDS011;7908;51.688;7.130;2022-09-20T13:52:44;5.47;;;1.00;;
15616;SDS011;7908;51.688;7.130;2022-09-20T13:55:28;5.27;;;1.10;;
15616;SDS011;7908;51.688;7.130;2022-09-20T13:58:16;3.57;;;1.00;;
15616;SDS011;7908;51.688;7.130;2022-09-20T14:00:50;5.23;;;1.20;;
15616;SDS011;7908;51.688;7.130;2022-09-20T14:03:24;6.40;;;1.00;;
15616;SDS011;7908;51.688;7.130;2022-09-20T14:06:06;4.90;;;1.10;;
15616;SDS011;7908;51.688;7.130;2022-09-20T14:08:45;4.13;;;1.03;;
15616;SDS011;7908;51.688;7.130;2022-09-20T14:11:25;3.47;;;1.07;;
15616;SDS011;7908;51.688;7.130;2022-09-20T14:14:04;4.50;;;1.27;;
15616;SDS011;7908;51.688;7.130;2022-09-20T14:16:47;2.97;;;0.90;;
15616;SDS011;7908;51.688;7.130;2022-09-20T14:19:27;4.70;;;1.10;;
15616;SDS011;7908;51.688;7.130;2022-09-20T14:22:04;2.40;;;1.00;;
15616;SDS011;7908;51.688;7.130;2022-09-20T14:24:41;4.30;;;1.20;;
15616;SDS011;7908;51.688;7.130;2022-09-20T14:27:26;4.03;;;1.00;;
15616;SDS011;7908;51.688;7.130;2022-09-20T14:29:57;4.17;;;1.33;;
15616;SDS011;7908;51.688;7.130;2022-09-20T14:32:37;4.60;;;0.90;;
15616;SDS011;7908;51.688;7.130;2022-09-20T14:35:14;3.43;;;1.03;;
15616;SDS011;7908;51.688;7.130;2022-09-20T14:37:54;2.63;;;0.80;;
15616;SDS011;7908;51.688;7.130;2022-09-20T14:40:41;4.70;;;1.20;;
15616;SDS011;7908;51.688;7.130;2022-09-20T14:43:30;1.93;;;0.63;;
15616;SDS011;7908;51.688;7.130;2022-09-20T14:46:04;2.50;;;0.77;;
15616;SDS011;7908;51.688;7.130;2022-09-20T14:48:42;5.13;;;1.10;;
15616;SDS011;7908;51.688;7.130;2022-09-20T14:51:21;2.77;;;0.60;;
15616;SDS011;7908;51.688;7.130;2022-09-20T14:54:15;3.23;;;0.70;;
15616;SDS011;7908;51.688;7.130;2022-09-20T14:56:56;3.90;;;1.03;;
15616;SDS011;7908;51.688;7.130;2022-09-20T14:59:34;4.20;;;0.70;;
15616;SDS011;7908;51.688;7.130;2022-09-20T15:02:10;4.53;;;0.90;;
15616;SDS011;7908;51.688;7.130;2022-09-20T15:04:51;3.77;;;0.90;;
15616;SDS011;7908;51.688;7.130;2022-09-20T15:07:24;7.27;;;1.20;;
15616;SDS011;7908;51.688;7.130;2022-09-20T15:09:55;4.40;;;0.83;;
15616;SDS011;7908;51.688;7.130;2022-09-20T15:12:37;1.77;;;0.70;;
15616;SDS011;7908;51.688;7.130;2022-09-20T15:15:16;5.27;;;0.93;;
15616;SDS011;7908;51.688;7.130;2022-09-20T15:17:49;4.50;;;1.00;;
15616;SDS011;7908;51.688;7.130;2022-09-20T15:20:19;5.90;;;1.00;;
15616;SDS011;7908;51.688;7.130;2022-09-20T15:22:50;4.63;;;0.97;;
15616;SDS011;7908;51.688;7.130;2022-09-20T15:25:21;4.60;;;1.00;;
15616;SDS011;7908;51.688;7.130;2022-09-20T15:27:51;4.93;;;0.90;;
15616;SDS011;7908;51.688;7.130;2022-09-20T15:30:33;4.87;;;1.10;;
15616;SDS011;7908;51.688;7.130;2022-09-20T15:33:03;4.47;;;0.90;;
15616;SDS011;7908;51.688;7.130;2022-09-20T15:35:33;3.53;;;1.20;;
15616;SDS011;7908;51.688;7.130;2022-09-20T15:38:02;3.63;;;0.80;;
15616;SDS011;7908;51.688;7.130;2022-09-20T15:40:34;4.10;;;1.10;;
15616;SDS011;7908;51.688;7.130;2022-09-20T15:43:05;2.40;;;0.87;;
15616;SDS011;7908;51.688;7.130;2022-09-20T15:45:46;2.30;;;0.70;;
15616;SDS011;7908;51.688;7.130;2022-09-20T15:48:16;4.70;;;0.83;;
15616;SDS011;7908;51.688;7.130;2022-09-20T15:50:59;2.47;;;0.80;;
15616;SDS011;7908;51.688;7.130;2022-09-20T15:53:35;3.63;;;0.87;;
15616;SDS011;7908;51.688;7.130;2022-09-20T15:56:23;5.07;;;0.73;;
15616;SDS011;7908;51.688;7.130;2022-09-20T15:58:53;2.90;;;0.90;;
15616;SDS011;7908;51.688;7.130;2022-09-20T16:01:33;3.57;;;0.87;;
15616;SDS011;7908;51.688;7.130;2022-09-20T16:04:04;3.60;;;1.07;;
15616;SDS011;7908;51.688;7.130;2022-09-20T16:06:37;2.30;;;0.87;;
15616;SDS011;7908;51.688;7.130;2022-09-20T16:09:16;2.97;;;0.90;;
15616;SDS011;7908;51.688;7.130;2022-09-20T16:11:45;3.60;;;0.80;;
15616;SDS011;7908;51.688;7.130;2022-09-20T16:14:24;3.23;;;0.90;;
15616;SDS011;7908;51.688;7.130;2022-09-20T16:16:55;3.67;;;0.90;;
15616;SDS011;7908;51.688;7.130;2022-09-20T16:19:26;3.10;;;0.87;;
15616;SDS011;7908;51.688;7.130;2022-09-20T16:21:57;5.67;;;1.50;;
15616;SDS011;7908;51.688;7.130;2022-09-20T16:24:28;1.47;;;0.80;;
15616;SDS011;7908;51.688;7.130;2022-09-20T16:27:00;5.67;;;0.80;;
15616;SDS011;7908;51.688;7.130;2022-09-20T16:29:38;3.33;;;0.87;;
15616;SDS011;7908;51.688;7.130;2022-09-20T16:32:16;3.23;;;0.80;;
15616;SDS011;7908;51.688;7.130;2022-09-20T16:34:53;3.10;;;1.07;;
15616;SDS011;7908;51.688;7.130;2022-09-20T16:37:46;5.53;;;0.90;;
15616;SDS011;7908;51.688;7.130;2022-09-20T16:40:34;3.20;;;1.13;;
15616;SDS011;7908;51.688;7.130;2022-09-20T16:43:14;3.30;;;1.07;;
15616;SDS011;7908;51.688;7.130;2022-09-20T16:45:58;3.77;;;1.20;;
15616;SDS011;7908;51.688;7.130;2022-09-20T16:48:33;3.20;;;1.00;;
15616;SDS011;7908;51.688;7.130;2022-09-20T16:51:07;4.47;;;1.20;;
15616;SDS011;7908;51.688;7.130;2022-09-20T16:53:39;5.17;;;1.50;;
15616;SDS011;7908;51.688;7.130;2022-09-20T16:56:16;3.40;;;1.10;;
15616;SDS011;7908;51.688;7.130;2022-09-20T16:58:56;2.60;;;0.90;;
15616;SDS011;7908;51.688;7.130;2022-09-20T17:01:41;2.67;;;1.17;;
15616;SDS011;7908;51.688;7.130;2022-09-20T17:04:25;3.57;;;1.33;;